Time;durP1;ratioP1;P1;durP2;ratioP2;P2;SDS_P1;SDS_P2;PMS_P1;PMS_P2;Temp;Humidity;BMP_temperature;BMP_pressure;BME280_temperature;BME280_humidity;BME280_pressure;Samples;Min_cycle;Max_cycle;Signal;HPM_P1;HPM_P2
2024/04/05 00:00:16;;;;;;;2.13;0.82;;;13.20;86.40;;;;;;5001153;28;20029;-62
2024/04/05 00:02:44;;;;;;;1.67;0.80;;;13.20;86.60;;;;;;5005536;28;20534;-61
2024/04/05 00:05:10;;;;;;;4.07;1.10;;;13.20;86.70;;;;;;5006741;28;20029;-63
2024/04/05 00:07:39;;;;;;;3.03;0.90;;;13.20;86.60;;;;;;5013295;28;20538;-61
2024/04/05 00:10:08;;;;;;;0.90;0.80;;;13.20;86.70;;;;;;5014767;28;20029;-63
2024/04/05 00:12:34;;;;;;;1.25;1.00;;;13.20;86.90;;;;;;5007035;28;20042;-62
2024/04/05 00:15:00;;;;;;;1.40;0.90;;;13.20;86.70;;;;;;5009999;28;20034;-62
2024/04/05 00:17:26;;;;;;;1.95;0.90;;;13.20;86.70;;;;;;5005856;28;20146;-63
2024/04/05 00:19:55;;;;;;;1.08;0.80;;;13.20;86.90;;;;;;5013767;28;20386;-62
2024/04/05 00:22:22;;;;;;;0.88;0.80;;;13.20;86.90;;;;;;5005987;28;20517;-62
2024/04/05 00:24:48;;;;;;;1.73;0.80;;;13.20;86.90;;;;;;5009514;28;20129;-62
2024/04/05 00:27:14;;;;;;;1.95;0.93;;;13.20;86.90;;;;;;5006932;28;20060;-61
2024/04/05 00:29:39;;;;;;;2.60;1.05;;;13.20;86.90;;;;;;5014864;28;20563;-62
2024/04/05 00:32:05;;;;;;;1.40;1.08;;;13.20;86.90;;;;;;5013126;28;20038;-61
2024/04/05 00:34:31;;;;;;;5.10;1.38;;;13.30;86.90;;;;;;5013713;28;20124;-62
2024/04/05 00:36:56;;;;;;;1.45;1.10;;;13.20;86.90;;;;;;5005962;28;20081;-62
2024/04/05 00:39:22;;;;;;;3.90;1.38;;;13.20;86.90;;;;;;5006621;28;20421;-62
2024/04/05 00:41:48;;;;;;;2.25;1.23;;;13.20;87.00;;;;;;5006994;28;20030;-63
2024/04/05 00:44:14;;;;;;;2.78;1.20;;;13.20;87.00;;;;;;5008974;28;20117;-62
2024/04/05 00:46:40;;;;;;;1.83;1.13;;;13.20;87.00;;;;;;5014901;28;20030;-62
2024/04/05 00:49:06;;;;;;;1.15;1.00;;;13.20;87.10;;;;;;5012636;28;20563;-62
2024/04/05 00:51:32;;;;;;;2.50;1.20;;;13.10;87.10;;;;;;5007205;28;20061;-62
2024/04/05 00:53:57;;;;;;;1.70;1.23;;;13.10;87.10;;;;;;5006895;28;20100;-63
2024/04/05 00:56:24;;;;;;;2.33;1.23;;;13.20;87.10;;;;;;5006407;28;20038;-61
2024/04/05 00:58:50;;;;;;;1.33;1.00;;;13.10;87.10;;;;;;5006648;28;20041;-63
2024/04/05 01:01:16;;;;;;;2.30;1.40;;;13.20;87.10;;;;;;5009440;28;20052;-63
2024/04/05 01:03:42;;;;;;;2.50;1.10;;;13.10;87.10;;;;;;5010068;28;20117;-63
2024/04/05 01:06:08;;;;;;;1.30;1.20;;;13.10;87.20;;;;;;5008769;28;20089;-63
2024/04/05 01:08:33;;;;;;;2.75;1.25;;;13.10;87.30;;;;;;5000751;28;20502;-62
2024/04/05 01:10:59;;;;;;;1.90;1.35;;;13.10;87.30;;;;;;5006067;28;20044;-63
2024/04/05 01:13:25;;;;;;;1.52;1.20;;;13.10;87.30;;;;;;5001439;28;20641;-62
2024/04/05 01:15:50;;;;;;;3.55;1.10;;;13.00;87.40;;;;;;5021527;28;20060;-63
2024/04/05 01:18:16;;;;;;;1.30;1.20;;;13.10;88.50;;;;;;5020839;28;20039;-61
2024/04/05 01:20:45;;;;;;;1.27;1.00;;;13.00;87.60;;;;;;5009867;28;20030;-62
2024/04/05 01:23:16;;;;;;;1.63;1.40;;;13.10;87.80;;;;;;5008561;28;20035;-63
2024/04/05 01:25:42;;;;;;;1.85;1.00;;;13.00;87.80;;;;;;5017807;28;20041;-63
2024/04/05 01:28:12;;;;;;;2.78;1.10;;;13.00;87.60;;;;;;5006603;28;20402;-62
2024/04/05 01:30:38;;;;;;;2.72;1.00;;;13.00;87.80;;;;;;5012400;28;20065;-62
2024/04/05 01:33:04;;;;;;;2.00;1.40;;;13.10;87.70;;;;;;5005873;28;20042;-60
2024/04/05 01:35:30;;;;;;;2.90;1.10;;;13.10;87.60;;;;;;5009360;28;20084;-62
2024/04/05 01:37:56;;;;;;;1.63;1.08;;;13.10;87.70;;;;;;5008864;28;20552;-62
2024/04/05 01:40:23;;;;;;;3.67;1.10;;;13.10;87.70;;;;;;5005455;28;20042;-62
2024/04/05 01:42:48;;;;;;;2.35;1.13;;;13.10;87.70;;;;;;5012304;28;20076;-60
2024/04/05 01:45:14;;;;;;;1.27;1.08;;;13.10;87.80;;;;;;5009526;28;20053;-62
2024/04/05 01:47:40;;;;;;;1.20;0.95;;;13.10;87.80;;;;;;5017946;28;20405;-61
2024/04/05 01:50:06;;;;;;;1.38;0.98;;;13.10;87.70;;;;;;5009682;28;20041;-61
2024/04/05 01:52:32;;;;;;;1.30;1.08;;;13.10;87.80;;;;;;5012373;28;20501;-60
2024/04/05 01:54:58;;;;;;;2.15;0.90;;;13.10;87.80;;;;;;5003851;28;20034;-61
2024/04/05 01:57:24;;;;;;;2.25;1.20;;;13.10;87.70;;;;;;5002686;28;20041;-63
2024/04/05 01:59:51;;;;;;;0.90;0.80;;;13.20;87.70;;;;;;5009480;28;20030;-61
2024/04/05 02:02:17;;;;;;;1.77;1.20;;;13.10;87.60;;;;;;5010162;28;20533;-61
2024/04/05 02:04:44;;;;;;;1.15;0.98;;;13.20;87.60;;;;;;5006381;28;20037;-62
2024/04/05 02:07:09;;;;;;;1.30;1.05;;;13.20;87.60;;;;;;5007152;28;20409;-61
2024/04/05 02:09:35;;;;;;;1.75;1.10;;;13.20;87.60;;;;;;5009375;28;20033;-61
2024/04/05 02:12:01;;;;;;;1.80;1.10;;;13.20;87.40;;;;;;5001178;28;20045;-61
2024/04/05 02:14:27;;;;;;;1.23;1.08;;;13.20;87.40;;;;;;5007145;28;20041;-62
2024/04/05 02:16:57;;;;;;;1.98;1.10;;;13.20;87.40;;;;;;5005194;28;20033;-61
2024/04/05 02:19:23;;;;;;;1.50;1.20;;;13.20;87.50;;;;;;5005686;28;20064;-60
2024/04/05 02:21:49;;;;;;;1.20;1.10;;;13.20;87.40;;;;;;5006897;28;20038;-61
2024/04/05 02:24:15;;;;;;;1.40;1.10;;;13.20;87.20;;;;;;5004483;28;20033;-60
2024/04/05 02:26:41;;;;;;;2.05;1.30;;;13.20;87.10;;;;;;5008177;28;20165;-60
2024/04/05 02:29:07;;;;;;;2.13;1.10;;;13.30;87.20;;;;;;5004366;28;20524;-61
2024/04/05 02:31:32;;;;;;;1.08;1.00;;;13.20;87.10;;;;;;5006414;28;20056;-61
2024/04/05 02:33:58;;;;;;;1.88;1.45;;;13.20;87.10;;;;;;5008587;28;20129;-60
2024/04/05 02:36:24;;;;;;;0.85;0.82;;;13.30;87.20;;;;;;5002884;28;20425;-60
2024/04/05 02:38:50;;;;;;;1.90;1.10;;;13.20;87.20;;;;;;5008949;28;20029;-61
2024/04/05 02:41:15;;;;;;;2.33;1.52;;;13.20;87.30;;;;;;5002819;28;20057;-61
2024/04/05 02:43:41;;;;;;;1.75;1.23;;;13.20;87.40;;;;;;5008569;28;20149;-61
2024/04/05 02:46:07;;;;;;;1.40;1.30;;;13.20;87.40;;;;;;5001073;28;20042;-61
2024/04/05 02:48:32;;;;;;;1.42;1.33;;;13.20;88.30;;;;;;4998219;28;20042;-63
2024/04/05 02:50:58;;;;;;;1.95;1.17;;;13.20;87.50;;;;;;4999624;28;20029;-63
2024/04/05 02:53:24;;;;;;;1.52;1.23;;;13.20;87.50;;;;;;5007898;28;20049;-63
2024/04/05 02:55:50;;;;;;;1.90;1.42;;;13.20;87.40;;;;;;5006730;28;20385;-62
2024/04/05 02:58:16;;;;;;;2.75;1.63;;;13.20;87.60;;;;;;5006684;28;20038;-62
2024/04/05 03:00:45;;;;;;;2.10;1.30;;;13.20;87.70;;;;;;5006635;28;20126;-63
2024/04/05 03:03:11;;;;;;;3.15;1.80;;;13.10;87.60;;;;;;5006971;28;20034;-63
2024/04/05 03:05:36;;;;;;;2.42;1.45;;;13.10;87.60;;;;;;5004124;28;20042;-62
2024/04/05 03:08:02;;;;;;;3.78;1.70;;;13.10;88.50;;;;;;5004076;28;20341;-62
2024/04/05 03:10:29;;;;;;;1.63;1.52;;;13.10;87.60;;;;;;5007060;28;20516;-61
2024/04/05 03:12:56;;;;;;;2.25;1.70;;;13.10;87.70;;;;;;5009120;28;20045;-63
2024/04/05 03:15:22;;;;;;;2.80;1.65;;;13.10;87.70;;;;;;5004704;28;20037;-61
2024/04/05 03:17:47;;;;;;;1.83;1.65;;;13.10;87.60;;;;;;5006497;28;20038;-63
2024/04/05 03:20:13;;;;;;;2.05;1.45;;;13.20;87.60;;;;;;5000229;28;20033;-63
2024/04/05 03:22:39;;;;;;;2.22;1.50;;;13.10;87.60;;;;;;5003824;28;20038;-62
2024/04/05 03:25:06;;;;;;;2.92;1.90;;;13.20;87.50;;;;;;5010684;28;20037;-61
2024/04/05 03:27:32;;;;;;;1.90;1.80;;;13.20;87.50;;;;;;4999127;28;20965;-62
2024/04/05 03:29:57;;;;;;;1.73;1.63;;;13.20;87.50;;;;;;5003853;28;20133;-62
2024/04/05 03:32:23;;;;;;;2.38;1.80;;;13.20;87.60;;;;;;4997728;28;20034;-62
2024/04/05 03:34:48;;;;;;;2.47;1.95;;;13.20;87.50;;;;;;4998072;28;20133;-62
2024/04/05 03:37:14;;;;;;;3.63;1.90;;;13.20;87.60;;;;;;4997736;28;20230;-62
2024/04/05 03:39:39;;;;;;;3.17;1.85;;;13.10;87.60;;;;;;4999567;28;20066;-62
2024/04/05 03:42:05;;;;;;;2.70;1.55;;;13.10;87.70;;;;;;4998852;28;20038;-62
2024/04/05 03:44:31;;;;;;;2.47;1.65;;;13.10;87.80;;;;;;5002287;28;20037;-62
2024/04/05 03:46:57;;;;;;;1.98;1.42;;;13.00;87.90;;;;;;5003495;28;20033;-62
2024/04/05 03:49:22;;;;;;;3.42;1.60;;;13.00;88.00;;;;;;5007689;28;20042;-62
2024/04/05 03:51:48;;;;;;;1.85;1.58;;;13.00;88.00;;;;;;5009709;28;20103;-63
2024/04/05 03:54:14;;;;;;;2.25;1.70;;;13.00;88.00;;;;;;5001258;28;20034;-60
2024/04/05 03:56:39;;;;;;;2.83;1.90;;;13.00;87.90;;;;;;4998781;28;20038;-62
2024/04/05 03:59:05;;;;;;;3.22;1.70;;;13.00;87.90;;;;;;5000636;28;20199;-62
2024/04/05 04:01:31;;;;;;;3.13;1.50;;;13.00;87.90;;;;;;5009854;28;20038;-62
2024/04/05 04:03:57;;;;;;;1.40;1.30;;;12.90;87.80;;;;;;4997200;28;20173;-62
2024/04/05 04:06:22;;;;;;;1.98;1.45;;;13.00;88.00;;;;;;5003364;28;20046;-63
2024/04/05 04:08:48;;;;;;;2.38;1.80;;;12.90;88.00;;;;;;5005047;28;20034;-62
2024/04/05 04:11:14;;;;;;;1.77;1.50;;;13.00;87.90;;;;;;5005562;28;20034;-63
2024/04/05 04:13:40;;;;;;;1.70;1.60;;;12.90;87.80;;;;;;5001457;28;20048;-63
2024/04/05 04:16:05;;;;;;;2.42;1.92;;;13.00;87.80;;;;;;5004102;28;20862;-63
2024/04/05 04:18:31;;;;;;;2.25;1.63;;;13.00;87.80;;;;;;5003157;28;20149;-61
2024/04/05 04:20:57;;;;;;;3.78;1.80;;;13.00;87.80;;;;;;5011755;28;20120;-62
2024/04/05 04:23:23;;;;;;;2.83;1.73;;;13.00;87.70;;;;;;4999332;28;20112;-63
2024/04/05 04:25:50;;;;;;;2.15;1.50;;;13.00;87.70;;;;;;4998161;28;20421;-62
2024/04/05 04:28:16;;;;;;;1.92;1.63;;;13.00;87.60;;;;;;4994576;28;20038;-61
2024/04/05 04:30:45;;;;;;;1.88;1.77;;;13.00;87.40;;;;;;4998321;28;20034;-62
2024/04/05 04:33:13;;;;;;;2.63;1.95;;;13.00;87.40;;;;;;4997746;28;20038;-63
2024/04/05 04:35:39;;;;;;;4.93;2.20;;;13.00;87.30;;;;;;4996944;28;20375;-62
2024/04/05 04:38:04;;;;;;;2.80;2.08;;;13.00;87.20;;;;;;4999640;28;20079;-62
2024/04/05 04:40:30;;;;;;;2.83;2.35;;;12.90;87.20;;;;;;4997839;28;20061;-62
2024/04/05 04:42:56;;;;;;;3.10;2.58;;;12.90;87.30;;;;;;5003757;28;20214;-62
2024/04/05 04:45:21;;;;;;;4.05;3.45;;;12.80;87.20;;;;;;4997040;28;20046;-63
2024/04/05 04:47:47;;;;;;;4.40;3.60;;;12.80;87.20;;;;;;5008294;28;20405;-62
2024/04/05 04:50:13;;;;;;;6.18;3.80;;;12.80;87.10;;;;;;5009961;28;20070;-62
2024/04/05 04:52:38;;;;;;;4.18;3.53;;;12.70;87.00;;;;;;5009646;28;20416;-62
2024/04/05 04:55:05;;;;;;;5.50;3.67;;;12.70;87.00;;;;;;5014896;28;20167;-62
2024/04/05 04:57:32;;;;;;;4.25;3.38;;;12.70;87.00;;;;;;5000523;28;20062;-60
2024/04/05 04:59:58;;;;;;;4.15;2.70;;;12.70;87.00;;;;;;5013375;28;20046;-62
2024/04/05 05:02:23;;;;;;;4.30;2.70;;;12.60;86.90;;;;;;5009630;28;20046;-62
2024/04/05 05:04:49;;;;;;;2.75;2.50;;;12.60;86.70;;;;;;5003669;28;20037;-62
2024/04/05 05:07:14;;;;;;;3.50;2.45;;;12.60;86.60;;;;;;5018775;28;20518;-63
2024/04/05 05:09:40;;;;;;;2.88;2.00;;;12.50;86.40;;;;;;5011148;28;20044;-62
2024/04/05 05:12:06;;;;;;;2.58;2.10;;;12.50;86.40;;;;;;5013782;28;20095;-62
2024/04/05 05:14:32;;;;;;;6.05;2.28;;;12.40;86.40;;;;;;5017662;28;20505;-62
2024/04/05 05:16:57;;;;;;;3.80;2.03;;;12.40;86.40;;;;;;5009217;28;20042;-62
2024/04/05 05:19:23;;;;;;;3.25;2.28;;;12.40;86.40;;;;;;5016293;28;20514;-62
2024/04/05 05:21:49;;;;;;;3.35;2.25;;;12.40;86.50;;;;;;5013042;28;20117;-62
2024/04/05 05:24:15;;;;;;;3.78;2.60;;;12.30;86.60;;;;;;5008646;28;20109;-62
2024/04/05 05:26:40;;;;;;;2.47;2.25;;;12.30;86.60;;;;;;5014256;28;20350;-62
2024/04/05 05:29:06;;;;;;;2.50;2.30;;;12.20;86.70;;;;;;5010665;28;20026;-61
2024/04/05 05:31:31;;;;;;;5.18;2.67;;;12.20;86.90;;;;;;5014079;28;20033;-62
2024/04/05 05:33:57;;;;;;;2.88;2.67;;;12.20;87.00;;;;;;5015813;28;20041;-62
2024/04/05 05:36:23;;;;;;;2.80;2.60;;;12.10;87.10;;;;;;5007809;28;20505;-61
2024/04/05 05:38:48;;;;;;;3.50;3.10;;;12.10;88.00;;;;;;5014237;28;20045;-62
2024/04/05 05:41:15;;;;;;;4.22;2.80;;;12.10;87.30;;;;;;5016426;28;20113;-62
2024/04/05 05:43:40;;;;;;;3.33;2.83;;;12.20;87.30;;;;;;5010877;28;20042;-62
2024/04/05 05:46:06;;;;;;;3.17;2.97;;;12.10;87.30;;;;;;5014480;28;20030;-62
2024/04/05 05:48:32;;;;;;;3.40;2.78;;;12.10;87.30;;;;;;5008284;28;20117;-62
2024/04/05 05:50:57;;;;;;;4.57;3.30;;;12.10;87.30;;;;;;5018814;28;20041;-63
2024/04/05 05:53:23;;;;;;;4.88;3.20;;;12.10;87.30;;;;;;5015271;28;20104;-62
2024/04/05 05:55:52;;;;;;;3.35;3.00;;;12.10;87.10;;;;;;5004559;28;20044;-62
2024/04/05 05:58:17;;;;;;;4.10;3.40;;;12.20;87.40;;;;;;5010183;28;20057;-62
2024/04/05 06:00:43;;;;;;;4.45;3.25;;;12.10;87.30;;;;;;5012666;28;20062;-62
2024/04/05 06:03:09;;;;;;;5.32;3.20;;;12.10;87.40;;;;;;5009447;28;20034;-62
2024/04/05 06:05:36;;;;;;;3.40;3.10;;;12.10;87.50;;;;;;5014510;28;20034;-61
2024/04/05 06:08:02;;;;;;;3.58;3.28;;;12.00;87.80;;;;;;5012886;28;20467;-62
2024/04/05 06:10:28;;;;;;;5.65;4.05;;;12.00;87.90;;;;;;5016612;28;20046;-62
2024/04/05 06:12:53;;;;;;;4.95;3.40;;;12.10;88.00;;;;;;5011048;28;20452;-62
2024/04/05 06:15:19;;;;;;;5.82;3.33;;;12.10;88.30;;;;;;5016525;28;20056;-61
2024/04/05 06:17:48;;;;;;;6.30;3.33;;;12.00;88.60;;;;;;5020246;28;20026;-62
2024/04/05 06:20:15;;;;;;;4.05;3.00;;;12.00;89.30;;;;;;5013035;28;20250;-62
2024/04/05 06:22:41;;;;;;;5.43;3.28;;;12.10;89.50;;;;;;5014396;28;20042;-60
2024/04/05 06:25:08;;;;;;;4.45;3.30;;;12.10;90.00;;;;;;5012856;28;20108;-62
2024/04/05 06:27:35;;;;;;;4.68;3.38;;;12.10;90.10;;;;;;5010162;28;20531;-63
2024/04/05 06:30:01;;;;;;;3.92;3.38;;;12.20;90.20;;;;;;5007001;28;20034;-62
2024/04/05 06:32:29;;;;;;;6.78;3.95;;;12.20;90.20;;;;;;5009939;28;20030;-62
2024/04/05 06:34:55;;;;;;;4.97;3.60;;;12.30;90.30;;;;;;5009957;28;20092;-62
2024/04/05 06:37:20;;;;;;;4.97;3.38;;;12.30;90.30;;;;;;5004731;28;20030;-62
2024/04/05 06:39:46;;;;;;;4.95;3.10;;;12.40;90.30;;;;;;5008313;28;20378;-61
2024/04/05 06:42:12;;;;;;;3.72;2.83;;;12.50;90.40;;;;;;5005089;28;20042;-62
2024/04/05 06:44:41;;;;;;;3.47;3.17;;;12.60;90.40;;;;;;5010648;28;20068;-62
2024/04/05 06:47:08;;;;;;;4.22;3.40;;;12.60;90.50;;;;;;5007261;28;20030;-61
2024/04/05 06:49:35;;;;;;;6.72;3.60;;;12.70;90.50;;;;;;5010245;28;20074;-60
2024/04/05 06:52:04;;;;;;;3.35;2.95;;;12.80;90.40;;;;;;5018321;28;20037;-62
2024/04/05 06:54:31;;;;;;;3.70;3.10;;;12.80;90.40;;;;;;5004212;28;20030;-62
2024/04/05 06:56:57;;;;;;;4.95;2.90;;;12.90;90.30;;;;;;5008925;28;20460;-61
2024/04/05 06:59:23;;;;;;;2.97;2.63;;;12.90;90.30;;;;;;5010293;28;20034;-62
2024/04/05 07:01:54;;;;;;;3.15;2.80;;;13.00;90.20;;;;;;5018362;28;20056;-62
2024/04/05 07:04:23;;;;;;;3.42;2.83;;;13.10;90.20;;;;;;5006394;28;20258;-62
2024/04/05 07:06:52;;;;;;;3.90;2.60;;;13.20;90.20;;;;;;5016548;28;20046;-62
2024/04/05 07:09:22;;;;;;;3.47;2.80;;;13.20;90.20;;;;;;5007053;28;20085;-62
2024/04/05 07:11:48;;;;;;;3.22;2.80;;;13.30;90.20;;;;;;5010836;28;20520;-62
2024/04/05 07:14:18;;;;;;;7.00;2.92;;;13.30;90.20;;;;;;5001992;28;20205;-62
2024/04/05 07:16:48;;;;;;;3.70;2.85;;;13.40;90.20;;;;;;5014096;28;20128;-60
2024/04/05 07:19:18;;;;;;;3.60;2.53;;;13.50;90.20;;;;;;5017537;28;20065;-62
2024/04/05 07:21:47;;;;;;;3.28;2.20;;;13.60;90.10;;;;;;5011149;28;20445;-62
2024/04/05 07:24:13;;;;;;;3.05;1.98;;;13.70;90.00;;;;;;5013874;28;20057;-62
2024/04/05 07:26:39;;;;;;;3.60;1.85;;;13.80;89.70;;;;;;5017893;28;20402;-62
2024/04/05 07:29:05;;;;;;;1.95;1.75;;;13.90;89.50;;;;;;5012130;28;20084;-62
2024/04/05 07:31:36;;;;;;;2.30;1.75;;;14.00;89.40;;;;;;5013013;28;20518;-62
2024/04/05 07:34:02;;;;;;;4.03;1.60;;;14.00;89.30;;;;;;5005920;28;20037;-61
2024/04/05 07:36:28;;;;;;;2.95;1.80;;;14.10;89.20;;;;;;5013958;28;20120;-62
2024/04/05 07:38:53;;;;;;;2.80;1.85;;;14.20;89.10;;;;;;5011418;28;20034;-62
2024/04/05 07:41:19;;;;;;;3.28;1.77;;;14.30;89.30;;;;;;5016002;28;20061;-62
2024/04/05 07:43:44;;;;;;;4.22;1.80;;;14.40;89.20;;;;;;5009653;28;20068;-61
2024/04/05 07:46:10;;;;;;;2.63;1.58;;;14.50;88.80;;;;;;5014842;28;20149;-63
2024/04/05 07:48:36;;;;;;;3.67;1.80;;;14.60;88.60;;;;;;5008248;28;20026;-62
2024/04/05 07:51:02;;;;;;;2.33;1.80;;;14.70;88.30;;;;;;5016765;28;20554;-62
2024/04/05 07:53:28;;;;;;;3.53;1.70;;;14.80;88.20;;;;;;5006401;28;20423;-62
2024/04/05 07:55:53;;;;;;;1.60;1.33;;;14.90;88.00;;;;;;5005590;28;20263;-61
2024/04/05 07:58:20;;;;;;;2.83;1.20;;;15.00;88.00;;;;;;5014709;28;20042;-62
2024/04/05 08:00:46;;;;;;;2.63;0.90;;;15.10;87.60;;;;;;5016904;28;20037;-62
2024/04/05 08:03:12;;;;;;;1.75;0.70;;;15.20;86.70;;;;;;5008615;28;20057;-61
2024/04/05 08:05:38;;;;;;;1.20;0.80;;;15.30;86.00;;;;;;5012602;28;20443;-62
2024/04/05 08:08:04;;;;;;;4.20;0.70;;;15.40;85.50;;;;;;5007047;28;20084;-62
2024/04/05 08:10:33;;;;;;;1.98;0.60;;;15.40;85.20;;;;;;5013107;28;20038;-60
2024/04/05 08:12:58;;;;;;;4.07;0.90;;;15.50;84.80;;;;;;5012775;28;20033;-62
2024/04/05 08:15:25;;;;;;;3.78;1.20;;;15.60;84.40;;;;;;5007406;28;20071;-61
2024/04/05 08:17:51;;;;;;;2.80;0.77;;;15.70;84.40;;;;;;5014572;28;20065;-60
2024/04/05 08:20:18;;;;;;;3.53;0.85;;;15.80;83.40;;;;;;5005151;28;20058;-62
2024/04/05 08:22:44;;;;;;;2.55;1.08;;;15.90;82.70;;;;;;5014328;28;20034;-62
2024/04/05 08:25:09;;;;;;;3.53;1.90;;;16.00;82.90;;;;;;5013385;28;20034;-62
2024/04/05 08:27:35;;;;;;;2.55;1.70;;;16.10;84.10;;;;;;5016237;28;20053;-62
2024/04/05 08:30:01;;;;;;;4.38;2.25;;;16.20;84.70;;;;;;5013414;28;20062;-62
2024/04/05 08:32:27;;;;;;;4.70;1.98;;;16.30;84.80;;;;;;5008585;28;20387;-62
2024/04/05 08:34:52;;;;;;;5.72;1.90;;;16.30;84.30;;;;;;5010478;28;20539;-62
2024/04/05 08:37:18;;;;;;;2.50;1.70;;;16.40;84.30;;;;;;5011934;28;20374;-62
2024/04/05 08:39:44;;;;;;;3.25;1.90;;;16.40;85.30;;;;;;5014243;28;20025;-62
2024/04/05 08:42:13;;;;;;;2.03;1.70;;;16.40;84.80;;;;;;5015417;28;20130;-62
2024/04/05 08:44:44;;;;;;;3.60;1.60;;;16.50;84.30;;;;;;5013771;28;20084;-62
2024/04/05 08:47:10;;;;;;;2.63;1.55;;;16.60;84.10;;;;;;5014158;28;20057;-62
2024/04/05 08:49:36;;;;;;;2.97;1.70;;;16.60;84.10;;;;;;5011783;28;20522;-62
2024/04/05 08:52:03;;;;;;;2.58;1.60;;;16.70;83.90;;;;;;5019872;28;20107;-62
2024/04/05 08:54:29;;;;;;;2.17;1.20;;;16.70;83.40;;;;;;5010929;28;20045;-61
2024/04/05 08:57:00;;;;;;;3.28;1.38;;;16.80;83.20;;;;;;5012086;28;20034;-62
2024/04/05 08:59:29;;;;;;;3.08;1.35;;;16.90;82.60;;;;;;5016280;28;20129;-62
2024/04/05 09:01:59;;;;;;;3.50;1.20;;;16.90;82.60;;;;;;5017737;28;20452;-62
2024/04/05 09:04:30;;;;;;;2.47;1.70;;;17.10;82.50;;;;;;5010532;28;20121;-63
2024/04/05 09:06:57;;;;;;;2.53;1.77;;;17.10;82.50;;;;;;5012212;28;20045;-62
2024/04/05 09:09:30;;;;;;;2.60;1.50;;;17.20;82.50;;;;;;5012683;28;20038;-62
2024/04/05 09:12:17;;;;;;;3.13;1.45;;;17.20;81.20;;;;;;5007839;28;20456;-62
2024/04/05 09:14:42;;;;;;;1.40;1.00;;;17.30;79.50;;;;;;5019804;28;20033;-62
2024/04/05 09:17:16;;;;;;;3.58;1.20;;;17.40;80.80;;;;;;5012193;28;20508;-62
2024/04/05 09:19:41;;;;;;;2.28;1.42;;;17.50;80.50;;;;;;5011331;28;20049;-62
2024/04/05 09:22:07;;;;;;;5.78;1.80;;;17.60;81.20;;;;;;5014281;28;20033;-62
2024/04/05 09:24:34;;;;;;;1.83;1.10;;;17.70;80.40;;;;;;5008460;28;20125;-62
2024/04/05 09:27:03;;;;;;;0.98;0.80;;;17.70;80.10;;;;;;5015455;28;20041;-62
2024/04/05 09:29:29;;;;;;;2.85;0.57;;;17.80;79.10;;;;;;5019258;28;20041;-62
2024/04/05 09:31:55;;;;;;;2.53;0.63;;;17.90;78.20;;;;;;5020198;28;20116;-62
2024/04/05 09:34:25;;;;;;;0.75;0.50;;;18.00;77.30;;;;;;5014005;28;20129;-62
2024/04/05 09:36:51;;;;;;;1.05;0.43;;;18.20;75.80;;;;;;5011465;28;20505;-62
2024/04/05 09:39:21;;;;;;;0.98;0.40;;;18.30;75.20;;;;;;5014499;28;20050;-60
2024/04/05 09:41:48;;;;;;;1.63;0.70;;;18.50;74.60;;;;;;5019584;28;20033;-61
2024/04/05 09:44:16;;;;;;;0.98;0.50;;;18.60;73.90;;;;;;5013528;28;20033;-62
2024/04/05 09:46:43;;;;;;;0.77;0.40;;;18.70;73.50;;;;;;5018813;28;20030;-63
2024/04/05 09:49:08;;;;;;;2.20;0.70;;;18.90;73.00;;;;;;5011368;28;20038;-62
2024/04/05 09:51:44;;;;;;;1.65;0.45;;;19.00;72.80;;;;;;5015166;28;20125;-62
2024/04/05 09:54:15;;;;;;;1.40;0.40;;;19.10;70.10;;;;;;5008419;28;20037;-62
2024/04/05 09:56:42;;;;;;;1.33;0.70;;;19.20;71.30;;;;;;5008152;28;20173;-62
2024/04/05 09:59:29;;;;;;;1.00;0.35;;;19.30;71.60;;;;;;5006808;28;20038;-61
2024/04/05 10:01:55;;;;;;;1.70;0.40;;;19.40;69.10;;;;;;5003671;28;20042;-62
2024/04/05 10:04:21;;;;;;;2.75;0.68;;;19.50;70.50;;;;;;5015731;28;20325;-62
2024/04/05 10:06:47;;;;;;;1.88;0.52;;;19.60;70.20;;;;;;5013831;28;20048;-62
2024/04/05 10:09:18;;;;;;;1.70;0.40;;;19.70;68.90;;;;;;5006463;28;20385;-63
2024/04/05 10:11:45;;;;;;;1.30;0.40;;;19.80;68.60;;;;;;5011572;28;20037;-63
2024/04/05 10:14:23;;;;;;;0.68;0.30;;;19.90;68.70;;;;;;5017844;28;20034;-63
2024/04/05 10:16:49;;;;;;;0.60;0.40;;;20.00;67.40;;;;;;5016428;28;20425;-63
2024/04/05 10:19:18;;;;;;;0.57;0.30;;;20.10;68.20;;;;;;5007683;28;20042;-60
2024/04/05 10:21:43;;;;;;;1.02;0.30;;;20.20;67.50;;;;;;5009345;28;20038;-63
2024/04/05 10:24:10;;;;;;;0.80;0.45;;;20.30;66.90;;;;;;5009425;28;20076;-62
2024/04/05 10:26:37;;;;;;;1.05;0.30;;;20.40;66.40;;;;;;5015690;28;20382;-62
2024/04/05 10:29:06;;;;;;;0.40;0.30;;;20.50;66.30;;;;;;5011762;28;20395;-62
2024/04/05 10:31:33;;;;;;;0.30;0.10;;;20.60;65.30;;;;;;5015302;28;20065;-62
2024/04/05 10:34:01;;;;;;;0.40;0.20;;;20.70;64.90;;;;;;5015730;28;20038;-62
2024/04/05 10:36:28;;;;;;;1.20;0.57;;;20.80;63.80;;;;;;5008889;28;20045;-62
2024/04/05 10:38:54;;;;;;;0.32;0.20;;;20.90;63.30;;;;;;5013621;28;20079;-62
2024/04/05 10:41:20;;;;;;;1.35;0.22;;;21.00;63.10;;;;;;5014519;28;20464;-62
2024/04/05 10:43:46;;;;;;;0.82;0.20;;;21.00;62.40;;;;;;5007317;28;20056;-63
2024/04/05 10:46:13;;;;;;;0.10;0.10;;;21.20;62.00;;;;;;5016557;28;20401;-60
2024/04/05 10:48:39;;;;;;;1.70;0.40;;;21.30;61.40;;;;;;5010901;28;20030;-62
2024/04/05 10:51:05;;;;;;;0.93;0.32;;;21.40;60.30;;;;;;5010057;28;20117;-62
2024/04/05 10:53:30;;;;;;;2.65;0.20;;;21.50;59.20;;;;;;5016858;28;20088;-62
2024/04/05 10:55:56;;;;;;;0.82;0.30;;;21.60;58.70;;;;;;5016932;28;20105;-61
2024/04/05 10:58:22;;;;;;;0.32;0.20;;;21.70;58.10;;;;;;5012683;28;20475;-62
2024/04/05 11:00:47;;;;;;;0.40;0.20;;;21.80;58.00;;;;;;5011951;28;20405;-63
2024/04/05 11:03:13;;;;;;;2.50;0.30;;;21.90;57.80;;;;;;5012657;28;20148;-63
2024/04/05 11:05:39;;;;;;;0.40;0.20;;;22.00;57.50;;;;;;5018106;28;20104;-61
2024/04/05 11:08:05;;;;;;;0.52;0.20;;;22.10;56.40;;;;;;5013009;28;20105;-62
2024/04/05 11:10:35;;;;;;;0.55;0.30;;;22.10;56.00;;;;;;5013099;28;20048;-63
2024/04/05 11:13:15;;;;;;;0.40;0.20;;;22.20;56.40;;;;;;5012619;28;20156;-63
2024/04/05 11:15:41;;;;;;;0.38;0.25;;;22.30;54.50;;;;;;5010172;28;20065;-63
2024/04/05 11:18:07;;;;;;;2.13;0.30;;;22.40;56.10;;;;;;5011452;28;20452;-63
2024/04/05 11:20:35;;;;;;;0.93;0.25;;;22.50;55.20;;;;;;5011892;28;20068;-63
2024/04/05 11:23:02;;;;;;;2.60;0.20;;;22.50;55.50;;;;;;5006507;28;20041;-63
2024/04/05 11:25:29;;;;;;;0.35;0.28;;;22.60;55.10;;;;;;5015333;28;20045;-63
2024/04/05 11:27:55;;;;;;;0.45;0.20;;;22.70;53.30;;;;;;5010877;28;20040;-62
2024/04/05 11:30:20;;;;;;;0.20;0.10;;;22.70;53.20;;;;;;5011744;28;20038;-61
2024/04/05 11:32:46;;;;;;;1.55;0.20;;;22.80;53.70;;;;;;5015386;28;20464;-63
2024/04/05 11:35:12;;;;;;;0.52;0.20;;;22.90;52.50;;;;;;5010553;28;20581;-63
2024/04/05 11:37:44;;;;;;;8.60;0.70;;;22.90;52.20;;;;;;5016469;28;20404;-63
2024/04/05 11:40:10;;;;;;;0.93;0.52;;;22.90;52.00;;;;;;5007199;28;20034;-63
2024/04/05 11:42:40;;;;;;;5.95;0.32;;;22.90;52.00;;;;;;5014354;28;20034;-63
2024/04/05 11:45:06;;;;;;;0.77;0.20;;;23.00;51.20;;;;;;5009072;28;20037;-63
2024/04/05 11:47:33;;;;;;;0.82;0.30;;;23.00;51.60;;;;;;5017956;28;20042;-63
2024/04/05 11:50:00;;;;;;;2.17;0.30;;;23.00;51.00;;;;;;5014949;28;20038;-63
2024/04/05 11:52:26;;;;;;;0.45;0.10;;;23.00;51.40;;;;;;5007071;28;20034;-61
2024/04/05 11:54:51;;;;;;;0.60;0.20;;;23.10;49.30;;;;;;5015482;28;20026;-64
2024/04/05 11:57:17;;;;;;;0.40;0.20;;;23.10;50.70;;;;;;5015523;28;20087;-63
2024/04/05 11:59:44;;;;;;;0.73;0.17;;;23.20;50.70;;;;;;5004997;28;20034;-63
2024/04/05 12:02:10;;;;;;;0.38;0.20;;;23.20;50.60;;;;;;5013031;28;20037;-63
2024/04/05 12:04:36;;;;;;;0.30;0.20;;;23.30;50.60;;;;;;5007471;28;20041;-63
2024/04/05 12:07:03;;;;;;;3.08;0.30;;;23.40;50.80;;;;;;5012952;28;20137;-62
2024/04/05 12:09:29;;;;;;;0.80;0.30;;;23.40;50.30;;;;;;5004509;28;20041;-63
2024/04/05 12:11:54;;;;;;;1.33;0.20;;;23.50;49.80;;;;;;5018245;28;20026;-63
2024/04/05 12:14:20;;;;;;;0.35;0.20;;;23.50;50.00;;;;;;5018574;28;20124;-63
2024/04/05 12:16:46;;;;;;;0.40;0.30;;;23.60;50.40;;;;;;5010746;28;20031;-61
2024/04/05 12:19:12;;;;;;;1.42;0.20;;;23.70;49.20;;;;;;5009807;28;20281;-61
2024/04/05 12:21:37;;;;;;;0.45;0.30;;;23.80;48.40;;;;;;5013545;28;20125;-64
2024/04/05 12:24:04;;;;;;;0.50;0.10;;;23.80;47.60;;;;;;5016439;28;20029;-63
2024/04/05 12:26:30;;;;;;;0.50;0.10;;;23.80;45.60;;;;;;5015614;28;20034;-63
2024/04/05 12:28:55;;;;;;;0.40;0.10;;;23.80;46.70;;;;;;5021690;28;20163;-62
2024/04/05 12:31:21;;;;;;;0.55;0.10;;;23.90;46.70;;;;;;5009721;28;20053;-63
2024/04/05 12:33:46;;;;;;;0.38;0.20;;;23.90;46.50;;;;;;5022584;28;20420;-63
2024/04/05 12:36:13;;;;;;;0.68;0.20;;;23.80;45.50;;;;;;5013449;28;20037;-63
2024/04/05 12:38:40;;;;;;;0.63;0.10;;;23.90;45.80;;;;;;5022366;28;20437;-63
2024/04/05 12:41:08;;;;;;;1.15;0.20;;;23.90;46.40;;;;;;5013529;28;20045;-63
2024/04/05 12:43:34;;;;;;;1.67;0.28;;;23.90;45.30;;;;;;5012296;28;20033;-64